sensor_id;sensor_type;location;lat;lon;timestamp;temperature;humidity
34917;DHT22;21126;48.308;11.750;2022-08-19T00:02:04;27.00;97.70
34917;DHT22;21126;48.308;11.750;2022-08-19T00:04:34;27.00;97.70
34917;DHT22;21126;48.308;11.750;2022-08-19T00:07:05;27.00;97.70
34917;DHT22;21126;48.308;11.750;2022-08-19T00:09:33;27.00;97.60
34917;DHT22;21126;48.308;11.750;2022-08-19T00:12:00;27.00;97.70
34917;DHT22;21126;48.308;11.750;2022-08-19T00:14:28;27.00;97.70
34917;DHT22;21126;48.308;11.750;2022-08-19T00:16:58;27.00;97.70
34917;DHT22;21126;48.308;11.750;2022-08-19T00:19:25;27.00;97.60
34917;DHT22;21126;48.308;11.750;2022-08-19T00:21:52;27.00;97.70
34917;DHT22;21126;48.308;11.750;2022-08-19T00:24:22;27.00;97.70
34917;DHT22;21126;48.308;11.750;2022-08-19T00:26:49;26.90;97.70
34917;DHT22;21126;48.308;11.750;2022-08-19T00:29:19;26.90;97.80
34917;DHT22;21126;48.308;11.750;2022-08-19T00:31:46;26.80;97.80
34917;DHT22;21126;48.308;11.750;2022-08-19T00:34:16;26.80;97.80
34917;DHT22;21126;48.308;11.750;2022-08-19T00:36:44;26.70;97.80
34917;DHT22;21126;48.308;11.750;2022-08-19T00:39:12;26.70;97.80
34917;DHT22;21126;48.308;11.750;2022-08-19T00:41:40;26.80;97.80
34917;DHT22;21126;48.308;11.750;2022-08-19T00:44:14;26.80;97.90
34917;DHT22;21126;48.308;11.750;2022-08-19T00:46:47;26.70;97.90
34917;DHT22;21126;48.308;11.750;2022-08-19T00:49:36;26.70;98.00
34917;DHT22;21126;48.308;11.750;2022-08-19T00:52:14;26.70;97.90
34917;DHT22;21126;48.308;11.750;2022-08-19T00:54:45;26.70;97.90
34917;DHT22;21126;48.308;11.750;2022-08-19T00:57:22;26.70;97.90
34917;DHT22;21126;48.308;11.750;2022-08-19T00:59:56;26.60;97.90
34917;DHT22;21126;48.308;11.750;2022-08-19T01:02:29;26.60;98.00
34917;DHT22;21126;48.308;11.750;2022-08-19T01:04:57;26.60;98.00
34917;DHT22;21126;48.308;11.750;2022-08-19T01:07:26;26.60;98.00
34917;DHT22;21126;48.308;11.750;2022-08-19T01:10:02;26.60;98.00
34917;DHT22;21126;48.308;11.750;2022-08-19T01:12:29;26.60;98.00
34917;DHT22;21126;48.308;11.750;2022-08-19T01:14:57;26.60;98.00
34917;DHT22;21126;48.308;11.750;2022-08-19T01:17:26;26.60;98.10
34917;DHT22;21126;48.308;11.750;2022-08-19T01:19:54;26.60;98.10
34917;DHT22;21126;48.308;11.750;2022-08-19T01:24:59;26.50;98.00
34917;DHT22;21126;48.308;11.750;2022-08-19T01:27:26;26.50;98.10
34917;DHT22;21126;48.308;11.750;2022-08-19T01:30:00;26.50;98.20
34917;DHT22;21126;48.308;11.750;2022-08-19T01:32:27;26.50;98.20
34917;DHT22;21126;48.308;11.750;2022-08-19T01:35:00;26.50;98.20
34917;DHT22;21126;48.308;11.750;2022-08-19T01:37:48;26.50;98.10
34917;DHT22;21126;48.308;11.750;2022-08-19T01:40:17;26.50;98.20
34917;DHT22;21126;48.308;11.750;2022-08-19T01:42:48;26.40;98.20
34917;DHT22;21126;48.308;11.750;2022-08-19T01:45:18;26.50;98.20
34917;DHT22;21126;48.308;11.750;2022-08-19T01:47:47;26.50;98.40
34917;DHT22;21126;48.308;11.750;2022-08-19T01:50:29;26.50;98.20
34917;DHT22;21126;48.308;11.750;2022-08-19T01:52:57;26.40;98.30
34917;DHT22;21126;48.308;11.750;2022-08-19T01:55:33;26.40;98.20
34917;DHT22;21126;48.308;11.750;2022-08-19T01:58:15;26.40;98.30
34917;DHT22;21126;48.308;11.750;2022-08-19T02:00:47;26.40;98.30
34917;DHT22;21126;48.308;11.750;2022-08-19T02:03:15;26.40;98.20
34917;DHT22;21126;48.308;11.750;2022-08-19T02:05:43;26.50;98.40
34917;DHT22;21126;48.308;11.750;2022-08-19T02:08:11;26.50;98.40
34917;DHT22;21126;48.308;11.750;2022-08-19T02:10:43;26.50;98.30
34917;DHT22;21126;48.308;11.750;2022-08-19T02:13:11;26.50;98.30
34917;DHT22;21126;48.308;11.750;2022-08-19T02:15:40;26.50;98.30
34917;DHT22;21126;48.308;11.750;2022-08-19T02:18:07;26.50;98.30
34917;DHT22;21126;48.308;11.750;2022-08-19T02:20:35;26.60;98.20
34917;DHT22;21126;48.308;11.750;2022-08-19T02:23:04;26.60;98.10
34917;DHT22;21126;48.308;11.750;2022-08-19T02:25:40;26.60;98.30
34917;DHT22;21126;48.308;11.750;2022-08-19T02:28:07;26.60;98.20
34917;DHT22;21126;48.308;11.750;2022-08-19T02:30:34;26.50;98.20
34917;DHT22;21126;48.308;11.750;2022-08-19T02:33:01;26.50;98.30
34917;DHT22;21126;48.308;11.750;2022-08-19T02:35:28;26.40;98.40
34917;DHT22;21126;48.308;11.750;2022-08-19T02:37:55;26.50;98.30
34917;DHT22;21126;48.308;11.750;2022-08-19T02:40:40;26.50;98.30
34917;DHT22;21126;48.308;11.750;2022-08-19T02:43:09;26.50;98.20
34917;DHT22;21126;48.308;11.750;2022-08-19T02:45:38;26.50;98.30
34917;DHT22;21126;48.308;11.750;2022-08-19T02:48:08;26.50;98.30
34917;DHT22;21126;48.308;11.750;2022-08-19T02:50:48;26.50;98.30
34917;DHT22;21126;48.308;11.750;2022-08-19T02:53:26;26.50;98.40
34917;DHT22;21126;48.308;11.750;2022-08-19T02:55:54;26.40;98.30
34917;DHT22;21126;48.308;11.750;2022-08-19T02:58:21;26.40;98.40
34917;DHT22;21126;48.308;11.750;2022-08-19T03:00:53;26.40;98.40
34917;DHT22;21126;48.308;11.750;2022-08-19T03:03:21;26.40;98.50
34917;DHT22;21126;48.308;11.750;2022-08-19T03:05:48;26.40;98.40
34917;DHT22;21126;48.308;11.750;2022-08-19T03:08:23;26.40;98.50
34917;DHT22;21126;48.308;11.750;2022-08-19T03:10:50;26.40;98.50
34917;DHT22;21126;48.308;11.750;2022-08-19T03:13:19;26.40;98.40
34917;DHT22;21126;48.308;11.750;2022-08-19T03:15:47;26.40;98.40
34917;DHT22;21126;48.308;11.750;2022-08-19T03:18:16;26.40;98.40
34917;DHT22;21126;48.308;11.750;2022-08-19T03:20:49;26.40;98.40
34917;DHT22;21126;48.308;11.750;2022-08-19T03:23:18;26.40;98.40
34917;DHT22;21126;48.308;11.750;2022-08-19T03:25:47;26.40;98.40
34917;DHT22;21126;48.308;11.750;2022-08-19T03:28:36;26.30;98.40
34917;DHT22;21126;48.308;11.750;2022-08-19T03:31:10;26.40;98.50
34917;DHT22;21126;48.308;11.750;2022-08-19T03:33:59;26.30;98.50
34917;DHT22;21126;48.308;11.750;2022-08-19T03:36:27;26.30;98.50
34917;DHT22;21126;48.308;11.750;2022-08-19T03:38:58;26.30;98.50
34917;DHT22;21126;48.308;11.750;2022-08-19T03:41:32;26.30;98.50
34917;DHT22;21126;48.308;11.750;2022-08-19T03:44:13;26.30;98.50
34917;DHT22;21126;48.308;11.750;2022-08-19T03:46:48;26.30;98.50
34917;DHT22;21126;48.308;11.750;2022-08-19T03:49:18;26.30;98.50
34917;DHT22;21126;48.308;11.750;2022-08-19T03:51:48;26.30;98.50
34917;DHT22;21126;48.308;11.750;2022-08-19T03:54:20;26.30;98.40
34917;DHT22;21126;48.308;11.750;2022-08-19T03:56:50;26.30;98.40
34917;DHT22;21126;48.308;11.750;2022-08-19T03:59:23;26.30;98.40
34917;DHT22;21126;48.308;11.750;2022-08-19T04:01:58;26.30;98.40
34917;DHT22;21126;48.308;11.750;2022-08-19T04:04:27;26.30;98.40
34917;DHT22;21126;48.308;11.750;2022-08-19T04:06:55;26.30;98.40
34917;DHT22;21126;48.308;11.750;2022-08-19T04:09:23;26.30;98.50
34917;DHT22;21126;48.308;11.750;2022-08-19T04:11:52;26.30;98.40
34917;DHT22;21126;48.308;11.750;2022-08-19T04:14:25;26.40;98.40
34917;DHT22;21126;48.308;11.750;2022-08-19T04:16:56;26.30;98.40
34917;DHT22;21126;48.308;11.750;2022-08-19T04:19:24;26.30;98.50
34917;DHT22;21126;48.308;11.750;2022-08-19T04:21:53;26.30;98.50
34917;DHT22;21126;48.308;11.750;2022-08-19T04:24:22;26.30;98.50
34917;DHT22;21126;48.308;11.750;2022-08-19T04:26:49;26.30;98.50
34917;DHT22;21126;48.308;11.750;2022-08-19T04:29:20;26.20;98.50
34917;DHT22;21126;48.308;11.750;2022-08-19T04:31:52;26.20;98.50
34917;DHT22;21126;48.308;11.750;2022-08-19T04:34:24;26.20;98.50
34917;DHT22;21126;48.308;11.750;2022-08-19T04:36:56;26.20;98.50
34917;DHT22;21126;48.308;11.750;2022-08-19T04:39:27;26.30;98.50
34917;DHT22;21126;48.308;11.750;2022-08-19T04:42:17;26.30;98.40
34917;DHT22;21126;48.308;11.750;2022-08-19T04:45:05;26.30;98.40
34917;DHT22;21126;48.308;11.750;2022-08-19T04:47:42;26.20;98.50
34917;DHT22;21126;48.308;11.750;2022-08-19T04:50:24;26.20;98.50
34917;DHT22;21126;48.308;11.750;2022-08-19T04:52:52;26.30;98.50
34917;DHT22;21126;48.308;11.750;2022-08-19T04:55:19;26.20;98.50
34917;DHT22;21126;48.308;11.750;2022-08-19T04:57:46;26.20;98.50
34917;DHT22;21126;48.308;11.750;2022-08-19T05:00:13;26.30;98.50
34917;DHT22;21126;48.308;11.750;2022-08-19T05:02:40;26.20;98.60
34917;DHT22;21126;48.308;11.750;2022-08-19T05:05:08;26.30;98.60
34917;DHT22;21126;48.308;11.750;2022-08-19T05:07:35;26.40;98.70
34917;DHT22;21126;48.308;11.750;2022-08-19T05:10:04;26.40;98.50
34917;DHT22;21126;48.308;11.750;2022-08-19T05:12:32;26.40;98.30
34917;DHT22;21126;48.308;11.750;2022-08-19T05:15:00;26.50;98.10
34917;DHT22;21126;48.308;11.750;2022-08-19T05:17:29;26.60;98.20
34917;DHT22;21126;48.308;11.750;2022-08-19T05:20:05;26.60;98.10
34917;DHT22;21126;48.308;11.750;2022-08-19T05:22:51;26.60;98.10
34917;DHT22;21126;48.308;11.750;2022-08-19T05:25:20;26.70;98.10
34917;DHT22;21126;48.308;11.750;2022-08-19T05:27:48;26.70;98.10
34917;DHT22;21126;48.308;11.750;2022-08-19T05:30:15;26.70;98.00
34917;DHT22;21126;48.308;11.750;2022-08-19T05:32:43;26.70;98.00
34917;DHT22;21126;48.308;11.750;2022-08-19T05:35:10;26.80;98.00
34917;DHT22;21126;48.308;11.750;2022-08-19T05:37:38;26.80;98.00
34917;DHT22;21126;48.308;11.750;2022-08-19T05:40:09;26.90;98.00
34917;DHT22;21126;48.308;11.750;2022-08-19T05:42:37;26.80;97.90
34917;DHT22;21126;48.308;11.750;2022-08-19T05:45:05;26.90;98.00
34917;DHT22;21126;48.308;11.750;2022-08-19T05:47:32;26.90;98.20
34917;DHT22;21126;48.308;11.750;2022-08-19T05:49:59;26.90;97.90
34917;DHT22;21126;48.308;11.750;2022-08-19T05:52:30;26.90;98.00
34917;DHT22;21126;48.308;11.750;2022-08-19T05:54:59;26.80;98.00
34917;DHT22;21126;48.308;11.750;2022-08-19T05:57:25;26.80;97.90
34917;DHT22;21126;48.308;11.750;2022-08-19T05:59:55;26.80;97.80
34917;DHT22;21126;48.308;11.750;2022-08-19T06:02:33;26.80;97.90
34917;DHT22;21126;48.308;11.750;2022-08-19T06:05:03;26.90;97.90
34917;DHT22;21126;48.308;11.750;2022-08-19T06:07:39;26.90;97.90
34917;DHT22;21126;48.308;11.750;2022-08-19T06:10:09;26.90;97.80
34917;DHT22;21126;48.308;11.750;2022-08-19T06:12:37;26.90;97.80
34917;DHT22;21126;48.308;11.750;2022-08-19T06:15:14;26.90;97.80
34917;DHT22;21126;48.308;11.750;2022-08-19T06:17:41;26.90;97.80
34917;DHT22;21126;48.308;11.750;2022-08-19T06:20:13;27.00;97.80
34917;DHT22;21126;48.308;11.750;2022-08-19T06:22:43;27.00;97.80
34917;DHT22;21126;48.308;11.750;2022-08-19T06:25:14;27.00;98.00
34917;DHT22;21126;48.308;11.750;2022-08-19T06:27:41;27.00;98.00
34917;DHT22;21126;48.308;11.750;2022-08-19T06:30:28;26.90;98.00
34917;DHT22;21126;48.308;11.750;2022-08-19T06:32:55;26.90;98.10
34917;DHT22;21126;48.308;11.750;2022-08-19T06:35:23;26.90;98.00
34917;DHT22;21126;48.308;11.750;2022-08-19T06:37:49;26.90;98.10
34917;DHT22;21126;48.308;11.750;2022-08-19T06:40:16;26.90;98.10
34917;DHT22;21126;48.308;11.750;2022-08-19T06:42:43;26.90;98.10
34917;DHT22;21126;48.308;11.750;2022-08-19T06:45:21;27.00;98.30
34917;DHT22;21126;48.308;11.750;2022-08-19T06:47:51;27.00;98.40
34917;DHT22;21126;48.308;11.750;2022-08-19T06:50:23;26.90;98.40
34917;DHT22;21126;48.308;11.750;2022-08-19T06:52:50;26.90;98.50
34917;DHT22;21126;48.308;11.750;2022-08-19T06:55:18;26.90;98.60
34917;DHT22;21126;48.308;11.750;2022-08-19T06:57:46;26.80;98.60
34917;DHT22;21126;48.308;11.750;2022-08-19T07:00:13;26.90;98.80
